createdAt,value
2023-05-17T00:00:32.183Z,11.90
2023-05-17T00:02:59.371Z,11.80
2023-05-17T00:05:26.628Z,11.80
2023-05-17T00:07:53.834Z,11.80
2023-05-17T00:10:20.753Z,11.80
2023-05-17T00:12:48.061Z,11.80
2023-05-17T00:15:15.048Z,11.70
2023-05-17T00:17:42.106Z,11.80
2023-05-17T00:20:09.647Z,11.70
2023-05-17T00:22:36.836Z,11.80
2023-05-17T00:25:04.685Z,11.80
2023-05-17T00:27:31.635Z,11.80
2023-05-17T00:29:58.687Z,11.80
2023-05-17T00:32:25.946Z,11.70
2023-05-17T00:34:52.930Z,11.70
2023-05-17T00:37:20.160Z,11.70
2023-05-17T00:39:47.211Z,11.70
2023-05-17T00:42:15.108Z,11.70
2023-05-17T00:44:42.081Z,11.70
2023-05-17T00:47:09.054Z,11.60
2023-05-17T00:49:36.132Z,11.60
2023-05-17T00:52:03.716Z,11.60
2023-05-17T00:54:31.523Z,11.50
2023-05-17T00:57:00.839Z,11.50
2023-05-17T00:59:29.608Z,11.50
2023-05-17T01:01:57.092Z,11.50
2023-05-17T01:04:24.922Z,11.50
2023-05-17T01:06:52.341Z,11.50
2023-05-17T01:09:19.499Z,11.40
2023-05-17T01:11:59.578Z,11.50
2023-05-17T01:14:51.617Z,11.40
2023-05-17T01:17:28.595Z,11.50
2023-05-17T01:20:19.198Z,11.40
2023-05-17T01:22:57.459Z,11.40
2023-05-17T01:25:52.313Z,11.40
2023-05-17T01:28:21.933Z,11.40
2023-05-17T01:30:51.968Z,11.50
2023-05-17T01:33:20.957Z,11.40
2023-05-17T01:35:47.978Z,11.30
2023-05-17T01:38:14.921Z,11.40
2023-05-17T01:40:52.872Z,11.40
2023-05-17T01:43:31.680Z,11.40
2023-05-17T01:46:11.661Z,11.40
2023-05-17T01:48:44.828Z,11.40
2023-05-17T01:51:18.850Z,11.40
2023-05-17T01:53:56.243Z,11.30
2023-05-17T01:56:32.045Z,11.30
2023-05-17T01:59:00.145Z,11.30
2023-05-17T02:01:29.225Z,11.30
2023-05-17T02:03:56.199Z,11.30
2023-05-17T02:06:23.358Z,11.20
2023-05-17T02:08:50.474Z,11.20
2023-05-17T02:11:17.460Z,11.10
2023-05-17T02:13:44.878Z,11.10
2023-05-17T02:16:12.157Z,11.10
2023-05-17T02:18:40.681Z,11.10
2023-05-17T02:21:07.954Z,11.00
2023-05-17T02:23:34.942Z,11.00
2023-05-17T02:26:02.321Z,11.00
2023-05-17T02:28:29.655Z,11.10
2023-05-17T02:30:57.265Z,11.10
2023-05-17T02:33:24.392Z,11.10
2023-05-17T02:35:51.567Z,11.10
2023-05-17T02:38:18.576Z,11.20
2023-05-17T02:40:45.614Z,11.20
2023-05-17T02:43:12.569Z,11.20
2023-05-17T02:45:39.522Z,11.10
2023-05-17T02:48:06.953Z,11.10
2023-05-17T02:50:34.166Z,11.10
2023-05-17T02:53:01.350Z,11.00
2023-05-17T02:55:28.900Z,11.00
2023-05-17T02:57:56.156Z,11.00
2023-05-17T03:00:23.202Z,11.00
2023-05-17T03:02:50.848Z,11.00
2023-05-17T03:05:18.100Z,11.00
2023-05-17T03:07:45.009Z,11.00
2023-05-17T03:10:12.158Z,11.00
2023-05-17T03:12:39.314Z,11.00
2023-05-17T03:15:06.808Z,11.00
2023-05-17T03:17:35.048Z,11.10
2023-05-17T03:20:02.146Z,11.10
2023-05-17T03:22:29.082Z,11.00
2023-05-17T03:24:56.268Z,11.00
2023-05-17T03:27:23.322Z,11.00
2023-05-17T03:29:50.335Z,11.10
2023-05-17T03:32:17.319Z,11.00
2023-05-17T03:34:44.355Z,11.00
2023-05-17T03:37:11.518Z,10.90
2023-05-17T03:39:38.460Z,10.80
2023-05-17T03:42:06.507Z,10.80
2023-05-17T03:44:33.476Z,10.80
2023-05-17T03:47:00.447Z,10.70
2023-05-17T03:49:27.453Z,10.60
2023-05-17T03:51:54.502Z,10.60
2023-05-17T03:54:21.573Z,10.60
2023-05-17T03:56:50.349Z,10.50
2023-05-17T03:59:17.580Z,10.50
2023-05-17T04:01:45.853Z,10.50
2023-05-17T04:04:12.959Z,10.50
2023-05-17T04:06:41.214Z,10.40
2023-05-17T04:09:10.771Z,10.40
2023-05-17T04:11:38.264Z,10.30
2023-05-17T04:14:05.510Z,10.30
2023-05-17T04:16:32.566Z,10.20
2023-05-17T04:19:02.498Z,10.20
2023-05-17T04:21:29.504Z,10.10
2023-05-17T04:23:56.459Z,10.10
2023-05-17T04:26:23.786Z,10.10
2023-05-17T04:28:51.495Z,10.10
2023-05-17T04:31:18.582Z,10.10
2023-05-17T04:33:45.890Z,10.10
2023-05-17T04:36:13.141Z,10.10
2023-05-17T04:38:40.368Z,10.10
2023-05-17T04:41:09.514Z,10.10
2023-05-17T04:43:36.983Z,10.10
2023-05-17T04:46:05.743Z,10.20
2023-05-17T04:48:33.028Z,10.20
2023-05-17T04:51:07.645Z,10.30
2023-05-17T04:53:34.901Z,10.30
2023-05-17T04:56:04.419Z,10.30
2023-05-17T04:58:32.158Z,10.40
2023-05-17T05:00:59.128Z,10.40
2023-05-17T05:03:26.602Z,10.40
2023-05-17T05:05:53.930Z,10.40
2023-05-17T05:08:21.047Z,10.50
2023-05-17T05:10:48.138Z,10.50
2023-05-17T05:13:15.252Z,10.50
2023-05-17T05:15:42.326Z,10.30
2023-05-17T05:18:09.447Z,10.40
2023-05-17T05:20:36.613Z,10.30
2023-05-17T05:23:06.020Z,10.20
2023-05-17T05:25:33.429Z,10.20
2023-05-17T05:28:00.474Z,10.10
2023-05-17T05:30:27.630Z,10.10
2023-05-17T05:32:54.681Z,10.10
2023-05-17T05:35:29.359Z,10.00
2023-05-17T05:37:57.757Z,10.00
2023-05-17T05:40:24.791Z,10.00
2023-05-17T05:42:52.881Z,9.90
2023-05-17T05:45:20.081Z,9.90
2023-05-17T05:47:47.157Z,9.90
2023-05-17T05:50:14.141Z,9.90
2023-05-17T05:52:41.071Z,9.90
2023-05-17T05:55:08.392Z,9.90
2023-05-17T05:57:35.984Z,9.90
2023-05-17T06:00:05.215Z,9.70
2023-05-17T06:02:32.555Z,9.80
2023-05-17T06:04:59.774Z,9.80
2023-05-17T06:07:26.715Z,9.70
2023-05-17T06:09:53.770Z,9.60
2023-05-17T06:12:20.917Z,9.60
2023-05-17T06:14:48.271Z,9.60
2023-05-17T06:17:15.605Z,9.60
2023-05-17T06:19:42.698Z,9.60
2023-05-17T06:22:09.649Z,9.70
2023-05-17T06:24:37.144Z,9.70
2023-05-17T06:27:04.883Z,9.70
2023-05-17T06:29:32.293Z,9.70
2023-05-17T06:32:00.181Z,9.70
2023-05-17T06:34:27.597Z,9.70
2023-05-17T06:36:54.614Z,9.70
2023-05-17T06:39:22.092Z,9.70
2023-05-17T06:41:49.160Z,9.80
2023-05-17T06:44:16.149Z,9.80
2023-05-17T06:46:43.057Z,9.70
2023-05-17T06:49:12.223Z,9.80
2023-05-17T06:51:39.331Z,9.70
2023-05-17T06:54:06.702Z,9.70
2023-05-17T06:56:33.880Z,9.80
2023-05-17T06:59:01.041Z,9.80
2023-05-17T07:01:28.230Z,9.90
2023-05-17T07:03:55.717Z,9.80
2023-05-17T07:06:22.829Z,9.80
2023-05-17T07:08:50.035Z,9.80
2023-05-17T07:11:17.086Z,9.70
2023-05-17T07:13:44.193Z,9.60
2023-05-17T07:16:11.275Z,9.50
2023-05-17T07:18:38.415Z,9.50
2023-05-17T07:21:06.045Z,9.40
2023-05-17T07:23:33.004Z,9.30
2023-05-17T07:26:00.169Z,9.30
2023-05-17T07:28:27.284Z,9.30
2023-05-17T07:30:54.288Z,9.10
2023-05-17T07:33:21.353Z,8.80
2023-05-17T07:35:48.370Z,8.60
2023-05-17T07:38:15.389Z,8.60
2023-05-17T07:40:45.352Z,8.60
2023-05-17T07:43:12.435Z,8.60
2023-05-17T07:45:39.425Z,8.50
2023-05-17T07:48:06.743Z,8.30
2023-05-17T07:50:33.755Z,8.30
2023-05-17T07:53:00.771Z,8.30
2023-05-17T07:55:31.460Z,8.20
2023-05-17T07:57:59.486Z,8.10
2023-05-17T08:00:26.797Z,8.00
2023-05-17T08:02:53.931Z,8.00
2023-05-17T08:05:21.285Z,8.00
2023-05-17T08:07:48.420Z,8.00
2023-05-17T08:10:15.492Z,8.00
2023-05-17T08:12:42.481Z,8.10
2023-05-17T08:15:09.884Z,8.00
2023-05-17T08:17:36.961Z,8.10
2023-05-17T08:20:06.487Z,8.00
2023-05-17T08:22:33.721Z,8.00
2023-05-17T08:25:00.844Z,7.90
2023-05-17T08:27:29.557Z,7.80
2023-05-17T08:29:57.859Z,7.70
2023-05-17T08:32:25.599Z,7.80
2023-05-17T08:34:53.329Z,7.80
2023-05-17T08:37:20.415Z,7.70
2023-05-17T08:39:48.357Z,7.60
2023-05-17T08:42:20.084Z,7.50
2023-05-17T08:44:47.434Z,7.50
2023-05-17T08:47:26.042Z,7.50
2023-05-17T08:49:57.772Z,7.60
2023-05-17T08:52:24.931Z,7.60
2023-05-17T08:54:53.049Z,7.40
2023-05-17T08:57:20.481Z,7.40
2023-05-17T08:59:48.247Z,7.30
2023-05-17T09:02:15.922Z,7.20
2023-05-17T09:04:43.682Z,7.10
2023-05-17T09:07:11.437Z,7.20
2023-05-17T09:09:38.829Z,7.00
2023-05-17T09:12:06.879Z,7.00
2023-05-17T09:14:37.307Z,7.00
2023-05-17T09:17:05.630Z,7.00
2023-05-17T09:19:32.827Z,6.90
2023-05-17T09:22:04.652Z,7.00
2023-05-17T09:24:31.897Z,6.90
2023-05-17T09:27:03.561Z,6.90
2023-05-17T09:29:34.206Z,6.90
2023-05-17T09:32:15.313Z,6.90
2023-05-17T09:34:45.982Z,7.00
2023-05-17T09:37:15.471Z,7.00
2023-05-17T09:39:44.996Z,7.10
2023-05-17T09:42:15.951Z,7.20
2023-05-17T09:45:02.159Z,7.10
2023-05-17T09:47:30.737Z,7.30
2023-05-17T09:50:00.827Z,7.30
2023-05-17T09:52:32.203Z,7.20
2023-05-17T09:55:00.551Z,7.20
2023-05-17T09:57:29.620Z,7.20
2023-05-17T09:59:57.724Z,7.20
2023-05-17T10:02:31.111Z,7.20
2023-05-17T10:04:58.924Z,7.40
2023-05-17T10:07:28.028Z,7.40
2023-05-17T10:09:56.337Z,7.50
2023-05-17T10:12:25.835Z,7.40
2023-05-17T10:14:56.277Z,7.50
2023-05-17T10:17:24.579Z,7.30
2023-05-17T10:19:52.744Z,7.30
2023-05-17T10:22:23.623Z,7.20
2023-05-17T10:24:51.980Z,7.20
2023-05-17T10:27:19.932Z,7.30
2023-05-17T10:29:50.222Z,7.30
2023-05-17T10:32:22.143Z,7.30
2023-05-17T10:35:01.612Z,7.20
2023-05-17T10:37:37.316Z,7.20
2023-05-17T10:40:05.093Z,7.20
2023-05-17T10:42:32.515Z,7.30
2023-05-17T10:45:01.765Z,7.30
2023-05-17T10:47:35.101Z,7.40
2023-05-17T10:50:03.503Z,7.30
2023-05-17T10:52:31.166Z,7.20
2023-05-17T10:55:01.057Z,7.20
2023-05-17T10:57:50.588Z,7.20
2023-05-17T11:00:26.249Z,7.20
2023-05-17T11:03:14.257Z,7.20
2023-05-17T11:06:05.873Z,7.20
2023-05-17T11:08:57.018Z,7.40
2023-05-17T11:11:25.322Z,7.30
2023-05-17T11:13:59.293Z,7.20
2023-05-17T11:16:34.324Z,7.20
2023-05-17T11:19:11.571Z,7.00
2023-05-17T11:21:48.890Z,6.90
2023-05-17T11:24:29.266Z,7.00
2023-05-17T11:27:00.442Z,7.00
2023-05-17T11:29:31.090Z,6.80
2023-05-17T11:31:58.210Z,6.80
2023-05-17T11:34:26.986Z,6.80
2023-05-17T11:36:55.854Z,6.80
2023-05-17T11:39:24.639Z,6.80
2023-05-17T11:41:56.591Z,6.70
2023-05-17T11:44:34.780Z,6.60
2023-05-17T11:47:05.984Z,6.60
2023-05-17T11:49:36.389Z,6.50
2023-05-17T11:52:05.096Z,6.50
2023-05-17T11:54:32.497Z,6.60
2023-05-17T11:57:00.964Z,6.60
2023-05-17T11:59:27.956Z,6.60
2023-05-17T12:01:56.435Z,6.50
2023-05-17T12:04:25.731Z,6.30
2023-05-17T12:06:56.277Z,6.30
2023-05-17T12:09:25.202Z,6.30
2023-05-17T12:11:52.303Z,6.30
2023-05-17T12:14:20.511Z,6.30
2023-05-17T12:16:57.402Z,6.30
2023-05-17T12:19:30.028Z,6.40
2023-05-17T12:22:13.864Z,6.40
2023-05-17T12:24:42.983Z,6.40
2023-05-17T12:27:10.791Z,6.50
2023-05-17T12:29:39.292Z,6.60
2023-05-17T12:32:07.389Z,6.50
2023-05-17T12:34:35.004Z,6.50
2023-05-17T12:37:02.132Z,6.50
2023-05-17T12:39:33.606Z,6.40
2023-05-17T12:42:01.815Z,6.40
2023-05-17T12:44:28.802Z,6.40
2023-05-17T12:46:57.745Z,6.40
2023-05-17T12:49:24.903Z,6.40
2023-05-17T12:51:52.100Z,6.40
2023-05-17T12:54:28.918Z,6.50
2023-05-17T12:56:56.668Z,6.50
2023-05-17T12:59:26.565Z,6.50
2023-05-17T13:01:55.854Z,6.50
2023-05-17T13:04:33.281Z,6.60
2023-05-17T13:07:05.311Z,6.80
2023-05-17T13:09:34.682Z,6.90
2023-05-17T13:12:08.501Z,6.90
2023-05-17T13:14:44.404Z,6.90
2023-05-17T13:17:22.917Z,7.00
2023-05-17T13:19:50.127Z,7.10
2023-05-17T13:22:17.254Z,7.10
2023-05-17T13:24:45.407Z,7.20
2023-05-17T13:27:12.867Z,7.20
2023-05-17T13:29:41.984Z,7.20
2023-05-17T13:32:11.639Z,7.00
2023-05-17T13:34:39.251Z,6.90
2023-05-17T13:37:10.297Z,6.90
2023-05-17T13:39:39.093Z,6.90
2023-05-17T13:42:06.346Z,6.90
2023-05-17T13:44:33.524Z,6.90
2023-05-17T13:47:00.495Z,6.90
2023-05-17T13:49:28.619Z,6.90
2023-05-17T13:51:55.717Z,6.90
2023-05-17T13:54:25.845Z,6.90
2023-05-17T13:56:55.630Z,6.90
2023-05-17T13:59:22.666Z,6.90
2023-05-17T14:01:49.757Z,7.00
2023-05-17T14:04:17.170Z,7.20
2023-05-17T14:06:45.333Z,7.20
2023-05-17T14:09:13.725Z,7.30
2023-05-17T14:11:41.054Z,7.40
2023-05-17T14:14:08.021Z,7.40
2023-05-17T14:16:35.043Z,7.40
2023-05-17T14:19:04.517Z,7.30
2023-05-17T14:21:31.936Z,7.30
2023-05-17T14:23:58.995Z,7.30
2023-05-17T14:26:26.847Z,7.40
2023-05-17T14:28:54.038Z,7.40
2023-05-17T14:31:21.177Z,7.40
2023-05-17T14:33:48.209Z,7.50
2023-05-17T14:36:15.263Z,7.40
2023-05-17T14:38:42.232Z,7.50
2023-05-17T14:41:09.418Z,7.50
2023-05-17T14:43:36.799Z,7.60
2023-05-17T14:46:04.567Z,7.70
2023-05-17T14:48:31.810Z,7.80
2023-05-17T14:50:58.900Z,8.00
2023-05-17T14:53:30.397Z,8.00
2023-05-17T14:55:58.066Z,8.10
2023-05-17T14:58:25.889Z,8.10
2023-05-17T15:01:05.752Z,8.10
2023-05-17T15:03:34.703Z,8.10
2023-05-17T15:06:05.126Z,8.20
2023-05-17T15:08:34.622Z,8.20
2023-05-17T15:11:01.910Z,8.20
2023-05-17T15:13:28.907Z,8.10
2023-05-17T15:15:56.460Z,8.20
2023-05-17T15:18:24.210Z,8.30
2023-05-17T15:20:51.248Z,8.30
2023-05-17T15:23:18.231Z,8.30
2023-05-17T15:25:45.815Z,8.20
2023-05-17T15:28:13.061Z,8.20
2023-05-17T15:30:42.282Z,8.30
2023-05-17T15:33:10.008Z,8.40
2023-05-17T15:35:40.338Z,8.40
2023-05-17T15:38:07.675Z,8.40
2023-05-17T15:40:34.869Z,8.40
2023-05-17T15:43:02.304Z,8.40
2023-05-17T15:45:29.726Z,8.50
2023-05-17T15:47:57.335Z,8.50
2023-05-17T15:50:24.613Z,8.50
2023-05-17T15:52:52.086Z,8.50
2023-05-17T15:55:19.356Z,8.50
2023-05-17T15:57:47.285Z,8.50
2023-05-17T16:00:14.676Z,8.50
2023-05-17T16:02:42.127Z,8.50
2023-05-17T16:05:09.603Z,8.60
2023-05-17T16:07:36.547Z,8.50
2023-05-17T16:10:03.992Z,8.60
2023-05-17T16:12:31.242Z,8.60
2023-05-17T16:14:58.406Z,8.60
2023-05-17T16:17:25.892Z,8.70
2023-05-17T16:19:53.784Z,8.70
2023-05-17T16:22:25.162Z,8.90
2023-05-17T16:24:54.095Z,9.00
2023-05-17T16:27:22.573Z,9.00
2023-05-17T16:29:49.642Z,9.10
2023-05-17T16:32:17.299Z,9.20
2023-05-17T16:34:44.359Z,9.20
2023-05-17T16:37:11.376Z,9.30
2023-05-17T16:39:38.619Z,9.30
2023-05-17T16:42:05.946Z,9.30
2023-05-17T16:44:33.422Z,9.30
2023-05-17T16:47:01.271Z,9.30
2023-05-17T16:49:30.484Z,9.30
2023-05-17T16:51:57.850Z,9.30
2023-05-17T16:54:28.287Z,9.30
2023-05-17T16:56:57.890Z,9.30
2023-05-17T16:59:25.130Z,9.30
2023-05-17T17:01:52.171Z,9.30
2023-05-17T17:04:19.389Z,9.30
2023-05-17T17:06:46.518Z,9.30
2023-05-17T17:09:14.389Z,9.30
2023-05-17T17:11:41.798Z,9.30
2023-05-17T17:14:09.097Z,9.30
2023-05-17T17:16:36.137Z,9.30
2023-05-17T17:19:03.833Z,9.30
2023-05-17T17:21:36.450Z,9.40
2023-05-17T17:24:05.637Z,9.40
2023-05-17T17:26:35.908Z,9.40
2023-05-17T17:29:14.884Z,9.40
2023-05-17T17:31:42.449Z,9.40
2023-05-17T17:34:09.481Z,9.40
2023-05-17T17:36:36.808Z,9.40
2023-05-17T17:39:03.957Z,9.50
2023-05-17T17:41:32.853Z,9.50
2023-05-17T17:44:00.505Z,9.50
2023-05-17T17:46:27.492Z,9.60
2023-05-17T17:48:56.682Z,9.60
2023-05-17T17:51:23.951Z,9.60
2023-05-17T17:53:53.200Z,9.60
2023-05-17T17:56:20.365Z,9.70
2023-05-17T17:58:48.404Z,9.80
2023-05-17T18:01:16.132Z,9.90
2023-05-17T18:03:43.166Z,9.90
2023-05-17T18:06:14.038Z,10.00
2023-05-17T18:08:41.178Z,10.10
2023-05-17T18:11:08.241Z,10.10
2023-05-17T18:13:35.328Z,10.10
2023-05-17T18:16:02.393Z,10.20
2023-05-17T18:18:29.485Z,10.20
2023-05-17T18:20:56.596Z,10.10
2023-05-17T18:23:24.528Z,10.10
2023-05-17T18:25:51.951Z,10.10
2023-05-17T18:28:26.851Z,10.00
2023-05-17T18:31:05.055Z,9.90
2023-05-17T18:33:34.177Z,9.90
2023-05-17T18:36:01.631Z,9.80
2023-05-17T18:38:28.790Z,9.80
2023-05-17T18:40:56.017Z,9.70
2023-05-17T18:43:23.065Z,9.70
2023-05-17T18:45:50.994Z,9.60
2023-05-17T18:48:18.988Z,9.60
2023-05-17T18:50:46.221Z,9.60
2023-05-17T18:53:13.268Z,9.50
2023-05-17T18:55:41.054Z,9.50
2023-05-17T18:58:08.343Z,9.50
2023-05-17T19:00:35.785Z,9.50
2023-05-17T19:03:04.637Z,9.50
2023-05-17T19:05:31.831Z,9.40
2023-05-17T19:07:58.848Z,9.30
2023-05-17T19:10:26.556Z,9.30
2023-05-17T19:12:53.706Z,9.30
2023-05-17T19:15:21.198Z,9.20
2023-05-17T19:17:48.245Z,9.00
2023-05-17T19:20:15.419Z,8.90
2023-05-17T19:22:42.399Z,8.70
2023-05-17T19:25:09.876Z,8.50
2023-05-17T19:27:36.901Z,8.30
2023-05-17T19:30:04.453Z,8.20
2023-05-17T19:32:33.259Z,8.10
2023-05-17T19:35:01.645Z,8.10
2023-05-17T19:37:28.884Z,8.00
2023-05-17T19:39:56.110Z,8.00
2023-05-17T19:42:23.128Z,7.90
2023-05-17T19:44:50.312Z,7.90
2023-05-17T19:47:17.351Z,7.80
2023-05-17T19:49:44.603Z,7.80
2023-05-17T19:52:11.672Z,7.80
2023-05-17T19:54:38.791Z,7.70
2023-05-17T19:57:05.960Z,7.60
2023-05-17T19:59:33.103Z,7.60
2023-05-17T20:02:00.258Z,7.60
2023-05-17T20:04:27.349Z,7.50
2023-05-17T20:06:54.944Z,7.40
2023-05-17T20:09:22.090Z,7.30
2023-05-17T20:11:49.079Z,7.30
2023-05-17T20:14:16.625Z,7.30
2023-05-17T20:16:43.896Z,7.20
2023-05-17T20:19:11.132Z,7.20
2023-05-17T20:21:38.253Z,7.10
2023-05-17T20:24:06.901Z,7.00
2023-05-17T20:26:37.317Z,7.00
2023-05-17T20:29:07.376Z,7.00
2023-05-17T20:31:36.137Z,6.90
2023-05-17T20:34:04.195Z,6.90
2023-05-17T20:36:31.765Z,6.90
2023-05-17T20:38:59.560Z,6.80
2023-05-17T20:41:26.589Z,6.70
2023-05-17T20:43:53.874Z,6.70
2023-05-17T20:46:21.088Z,6.70
2023-05-17T20:48:49.795Z,6.60
2023-05-17T20:51:19.806Z,6.40
2023-05-17T20:53:46.902Z,6.40
2023-05-17T20:56:19.262Z,6.40
2023-05-17T20:58:46.892Z,6.40
2023-05-17T21:01:14.916Z,6.30
2023-05-17T21:03:43.690Z,6.40
2023-05-17T21:06:11.242Z,6.40
2023-05-17T21:08:38.584Z,6.40
2023-05-17T21:11:05.693Z,6.40
2023-05-17T21:13:32.711Z,6.30
2023-05-17T21:16:00.368Z,6.30
2023-05-17T21:18:27.381Z,6.30
2023-05-17T21:20:55.168Z,6.20
2023-05-17T21:23:22.383Z,6.20
2023-05-17T21:25:49.835Z,6.10
2023-05-17T21:28:16.896Z,6.00
2023-05-17T21:30:43.997Z,6.00
2023-05-17T21:33:11.130Z,5.90
2023-05-17T21:35:38.490Z,5.90
2023-05-17T21:38:05.876Z,5.70
2023-05-17T21:40:33.296Z,5.60
2023-05-17T21:43:00.414Z,5.60
2023-05-17T21:45:27.819Z,5.50
2023-05-17T21:47:55.091Z,5.60
2023-05-17T21:50:22.235Z,5.50
2023-05-17T21:52:49.321Z,5.60
2023-05-17T21:55:16.308Z,5.60
2023-05-17T21:57:43.547Z,5.60
2023-05-17T22:00:15.491Z,5.60
2023-05-17T22:02:46.360Z,5.60
2023-05-17T22:05:13.745Z,5.50
2023-05-17T22:07:41.322Z,5.50
2023-05-17T22:10:10.011Z,5.50
2023-05-17T22:12:38.511Z,5.50
2023-05-17T22:15:06.112Z,5.50
2023-05-17T22:17:43.268Z,5.50
2023-05-17T22:20:17.898Z,5.50
2023-05-17T22:22:44.995Z,5.50
2023-05-17T22:25:12.092Z,5.40
2023-05-17T22:27:39.024Z,5.50
2023-05-17T22:30:07.784Z,5.40
2023-05-17T22:32:34.770Z,5.40
2023-05-17T22:35:01.892Z,5.40
2023-05-17T22:37:30.362Z,5.40
2023-05-17T22:39:57.331Z,5.40
2023-05-17T22:42:24.258Z,5.40
2023-05-17T22:44:51.448Z,5.40
2023-05-17T22:47:22.782Z,5.40
2023-05-17T22:49:52.678Z,5.40
2023-05-17T22:52:20.037Z,5.40
2023-05-17T22:54:47.291Z,5.40
2023-05-17T22:57:14.340Z,5.40
2023-05-17T22:59:44.107Z,5.40
2023-05-17T23:02:12.443Z,5.30
2023-05-17T23:04:40.574Z,5.30
2023-05-17T23:07:10.219Z,5.30
2023-05-17T23:09:40.934Z,5.30
2023-05-17T23:12:14.074Z,5.30
2023-05-17T23:14:41.276Z,5.30
2023-05-17T23:17:08.689Z,5.30
2023-05-17T23:19:36.282Z,5.20
2023-05-17T23:22:04.186Z,5.20
2023-05-17T23:24:31.653Z,5.30
2023-05-17T23:26:59.030Z,5.20
2023-05-17T23:29:26.210Z,5.20
2023-05-17T23:31:53.569Z,5.20
2023-05-17T23:34:21.125Z,5.20
2023-05-17T23:36:48.139Z,5.20
2023-05-17T23:39:15.824Z,5.20
2023-05-17T23:41:43.201Z,5.20
2023-05-17T23:44:11.074Z,5.20
2023-05-17T23:46:38.357Z,5.20
2023-05-17T23:49:05.953Z,5.20
2023-05-17T23:51:34.947Z,5.10
2023-05-17T23:54:02.189Z,5.10
2023-05-17T23:56:29.820Z,5.00
2023-05-17T23:58:56.749Z,5.00
